Terminal Aerodrome Forecast
Issued by NWS

Home | Current Version | Previous Version | Graphics & Text | Print | Product List | Glossary On
Versions: 1 2 3 4 5 6 7 8 9 10 11 12 13 14 15 16 17 18 19 20 21 22
000
FTUS42 KMHX 242200 AAA
TAFISO
TAF AMD
KISO 242238Z 2423/2518 19010KT P6SM BKN080
     FM250300 21010G15KT 2SM BR VCSH OVC008
     FM250600 23010KT 4SM BR VCSH OVC015
     FM250800 25008KT P6SM OVC050
      AMD LTD TO CLD VIS AND WIND=

USA.gov is the U.S. government's official web portal to all federal, state and local government web resources and services.